PWSweather.com
Personal Weather Stations
Station Observations
EDDERTON
Rossshire, EddertonGB IV191LA

RossshireEddertonGB IV191LA

Lat: 57.838, Lon: -4.176

Elevation: 60

Station Type: Davis Vantage PRO2 Wireless With Solar Sensor

http://www.ardmore-lodge.com

Latest ConditionsUpdated 2:15:01 PM GMT Saturday, May 30, 2015
Currently Today's Max Today's Min Today's Average
Temperature 55.9°F13.3°C 55.9°F13.3°C 45.7°F7.6°C 49.0°F9.4°C
Dew Point 47.0°F8.3°C 48.3°F9.1°C 38.8°F3.8°C 43.9°F6.6°C
Winds 3.5 mph NW5.6 kmh NW 16.1 mph W25.9 kmh W - 9.4 mph 15.1 kmh
Wind Gusts 9.2 mph14.8 kmh 25.3 mph40.7 kmh - -
Humidity 72% 91% 71% 83%
Pressure 29.74 in1007.1 mb 29.75 in1007.5 mb 29.62 in1003.0 mb -
Precipitation - 0.17 in4.3 mm - -
Hour Temp Dew Point Humidity Winds Wind Gusts Pressure Precip Precip Rate Daily Precip Total
02:15 PM 55.9°F13.3°C 47.0°F8.3°C 72% 3.5 mph NW5.6 kmh NW 9.2 mph14.8 kmh 29.74 in1007.1 mb - 0.00 in0.0 mm 0.17 in4.3 mm
02:00 PM 55.5°F13.1°C 47.7°F8.7°C 75% 4.6 mph NNW7.4 kmh NNW 6.9 mph11.1 kmh 29.75 in1007.5 mb - 0.00 in0.0 mm 0.17 in4.3 mm
01:45 PM 54.4°F12.4°C 47.3°F8.5°C 77% 4.6 mph NW7.4 kmh NW 5.8 mph9.3 kmh 29.74 in1007.1 mb - 0.00 in0.0 mm 0.17 in4.3 mm
01:30 PM 54.4°F12.4°C 48.3°F9.1°C 80% 5.8 mph WNW9.3 kmh WNW 9.2 mph14.8 kmh 29.74 in1007.1 mb - 0.00 in0.0 mm 0.17 in4.3 mm
01:15 PM 55.2°F12.9°C 46.0°F7.8°C 71% 5.8 mph NW9.3 kmh NW 10.4 mph16.7 kmh 29.74 in1007.1 mb - 0.00 in0.0 mm 0.17 in4.3 mm
01:00 PM 54.5°F12.5°C 47.4°F8.6°C 77% 8.1 mph W13.0 kmh W 10.4 mph16.7 kmh 29.74 in1007.1 mb - 0.00 in0.0 mm 0.17 in4.3 mm
12:45 PM 53.0°F11.7°C 46.3°F7.9°C 78% 9.2 mph WNW14.8 kmh WNW 15.0 mph24.1 kmh 29.74 in1007.1 mb - 0.00 in0.0 mm 0.17 in4.3 mm
12:30 PM 52.2°F11.2°C 45.9°F7.7°C 79% 8.1 mph WSW13.0 kmh WSW 12.7 mph20.4 kmh 29.74 in1007.1 mb - 0.00 in0.0 mm 0.17 in4.3 mm
12:15 PM 51.8°F11.0°C 45.8°F7.7°C 80% 9.2 mph W14.8 kmh W 13.8 mph22.2 kmh 29.74 in1007.1 mb - 0.00 in0.0 mm 0.17 in4.3 mm
12:00 PM 52.3°F11.3°C 45.6°F7.6°C 78% 6.9 mph W11.1 kmh W 13.8 mph22.2 kmh 29.73 in1006.8 mb - 0.00 in0.0 mm 0.17 in4.3 mm
11:45 AM 51.9°F11.1°C 45.3°F7.4°C 78% 5.8 mph WNW9.3 kmh WNW 10.4 mph16.7 kmh 29.73 in1006.8 mb - 0.00 in0.0 mm 0.17 in4.3 mm
11:30 AM 53.7°F12.1°C 47.3°F8.5°C 79% 6.9 mph WNW11.1 kmh WNW 10.4 mph16.7 kmh 29.73 in1006.8 mb - 0.00 in0.0 mm 0.17 in4.3 mm
11:15 AM 51.6°F10.9°C 45.6°F7.6°C 80% 10.4 mph W16.7 kmh W 17.3 mph27.8 kmh 29.72 in1006.4 mb - 0.00 in0.0 mm 0.17 in4.3 mm
11:00 AM 50.7°F10.4°C 46.0°F7.8°C 84% 4.6 mph W7.4 kmh W 10.4 mph16.7 kmh 29.73 in1006.8 mb - 0.00 in0.0 mm 0.17 in4.3 mm
10:45 AM 49.5°F9.7°C 45.5°F7.5°C 86% 8.1 mph W13.0 kmh W 11.5 mph18.5 kmh 29.72 in1006.4 mb - 0.00 in0.0 mm 0.17 in4.3 mm
10:30 AM 49.8°F9.9°C 46.7°F8.2°C 89% 8.1 mph NW13.0 kmh NW 10.4 mph16.7 kmh 29.72 in1006.4 mb - 0.02 in0.5 mm 0.17 in4.3 mm
10:15 AM 50.2°F10.1°C 46.2°F7.9°C 86% 9.2 mph WNW14.8 kmh WNW 11.5 mph18.5 kmh 29.72 in1006.4 mb - 0.03 in0.8 mm 0.16 in4.1 mm
10:00 AM 51.6°F10.9°C 47.9°F8.8°C 87% 6.9 mph WNW11.1 kmh WNW 11.5 mph18.5 kmh 29.71 in1006.1 mb - 0.00 in0.0 mm 0.13 in3.3 mm
09:45 AM 50.3°F10.2°C 46.6°F8.1°C 87% 6.9 mph WNW11.1 kmh WNW 11.5 mph18.5 kmh 29.71 in1006.1 mb - 0.00 in0.0 mm 0.13 in3.3 mm
09:30 AM 51.3°F10.7°C 46.7°F8.2°C 84% 8.1 mph WNW13.0 kmh WNW 10.4 mph16.7 kmh 29.71 in1006.1 mb - 0.00 in0.0 mm 0.13 in3.3 mm
09:15 AM 52.2°F11.2°C 47.5°F8.6°C 84% 6.9 mph NW11.1 kmh NW 12.7 mph20.4 kmh 29.70 in1005.8 mb - 0.00 in0.0 mm 0.13 in3.3 mm
09:00 AM 51.0°F10.6°C 47.5°F8.6°C 88% 11.5 mph W18.5 kmh W 13.8 mph22.2 kmh 29.71 in1006.1 mb - 0.00 in0.0 mm 0.13 in3.3 mm
08:45 AM 48.8°F9.3°C 45.7°F7.6°C 89% 6.9 mph W11.1 kmh W 9.2 mph14.8 kmh 29.71 in1006.1 mb - 0.00 in0.0 mm 0.13 in3.3 mm
08:30 AM 48.5°F9.2°C 45.4°F7.4°C 89% 6.9 mph NW11.1 kmh NW 11.5 mph18.5 kmh 29.71 in1006.1 mb - 0.01 in0.3 mm 0.13 in3.3 mm
08:15 AM 48.6°F9.2°C 45.2°F7.3°C 88% 4.6 mph WNW7.4 kmh WNW 9.2 mph14.8 kmh 29.70 in1005.8 mb - 0.01 in0.3 mm 0.12 in3.0 mm
08:00 AM 49.0°F9.4°C 45.0°F7.2°C 86% 6.9 mph W11.1 kmh W 9.2 mph14.8 kmh 29.70 in1005.8 mb - 0.00 in0.0 mm 0.11 in2.8 mm
07:45 AM 48.8°F9.3°C 45.1°F7.3°C 87% 6.9 mph W11.1 kmh W 13.8 mph22.2 kmh 29.69 in1005.4 mb - 0.00 in0.0 mm 0.11 in2.8 mm
07:30 AM 48.4°F9.1°C 45.0°F7.2°C 88% 4.6 mph W7.4 kmh W 5.8 mph9.3 kmh 29.69 in1005.4 mb - 0.00 in0.0 mm 0.11 in2.8 mm
07:15 AM 47.8°F8.8°C 44.4°F6.9°C 88% 8.1 mph W13.0 kmh W 11.5 mph18.5 kmh 29.68 in1005.1 mb - 0.00 in0.0 mm 0.11 in2.8 mm
07:00 AM 47.5°F8.6°C 44.1°F6.7°C 88% 12.7 mph W20.4 kmh W 16.1 mph25.9 kmh 29.68 in1005.1 mb - 0.00 in0.0 mm 0.11 in2.8 mm
06:45 AM 47.8°F8.8°C 44.4°F6.9°C 88% 12.7 mph WSW20.4 kmh WSW 17.3 mph27.8 kmh 29.68 in1005.1 mb - 0.00 in0.0 mm 0.11 in2.8 mm
06:30 AM 47.6°F8.7°C 44.5°F6.9°C 89% 10.4 mph W16.7 kmh W 16.1 mph25.9 kmh 29.68 in1005.1 mb - 0.00 in0.0 mm 0.11 in2.8 mm
06:15 AM 47.5°F8.6°C 44.4°F6.9°C 89% 8.1 mph W13.0 kmh W 12.7 mph20.4 kmh 29.67 in1004.7 mb - 0.00 in0.0 mm 0.11 in2.8 mm
06:00 AM 46.6°F8.1°C 43.5°F6.4°C 89% 6.9 mph WNW11.1 kmh WNW 12.7 mph20.4 kmh 29.67 in1004.7 mb - 0.00 in0.0 mm 0.11 in2.8 mm
05:45 AM 46.4°F8.0°C 43.6°F6.4°C 90% 8.1 mph WNW13.0 kmh WNW 5.8 mph9.3 kmh 29.66 in1004.4 mb - 0.00 in0.0 mm 0.11 in2.8 mm
05:30 AM 46.2°F7.9°C 43.7°F6.5°C 91% 9.2 mph W14.8 kmh W 16.1 mph25.9 kmh 29.66 in1004.4 mb - 0.01 in0.3 mm 0.11 in2.8 mm
05:15 AM 46.3°F7.9°C 43.5°F6.4°C 90% 9.2 mph W14.8 kmh W 12.7 mph20.4 kmh 29.66 in1004.4 mb - 0.03 in0.8 mm 0.10 in2.5 mm
05:00 AM 46.1°F7.8°C 43.3°F6.3°C 90% 9.2 mph W14.8 kmh W 11.5 mph18.5 kmh 29.66 in1004.4 mb - 0.01 in0.3 mm 0.07 in1.8 mm
04:45 AM 46.2°F7.9°C 42.8°F6.0°C 88% 4.6 mph W7.4 kmh W 11.5 mph18.5 kmh 29.65 in1004.1 mb - 0.03 in0.8 mm 0.06 in1.5 mm
04:30 AM 46.7°F8.2°C 42.7°F5.9°C 86% 5.8 mph WNW9.3 kmh WNW 5.8 mph9.3 kmh 29.65 in1004.1 mb - 0.01 in0.3 mm 0.03 in0.8 mm
04:15 AM 46.4°F8.0°C 42.5°F5.8°C 86% 16.1 mph W25.9 kmh W 20.7 mph33.3 kmh 29.64 in1003.7 mb - 0.00 in0.0 mm 0.02 in0.5 mm
04:00 AM 46.3°F7.9°C 42.4°F5.8°C 86% 11.5 mph W18.5 kmh W 15.0 mph24.1 kmh 29.64 in1003.7 mb - 0.01 in0.3 mm 0.02 in0.5 mm
03:45 AM 46.5°F8.1°C 41.9°F5.5°C 84% 15.0 mph W24.1 kmh W 19.6 mph31.5 kmh 29.63 in1003.4 mb - 0.01 in0.3 mm 0.01 in0.3 mm
03:30 AM 46.5°F8.1°C 41.3°F5.2°C 82% 16.1 mph W25.9 kmh W 19.6 mph31.5 kmh 29.63 in1003.4 mb - 0.00 in0.0 mm 0.00 in0.0 mm
03:15 AM 46.3°F7.9°C 41.1°F5.1°C 82% 16.1 mph W25.9 kmh W 20.7 mph33.3 kmh 29.62 in1003.0 mb - 0.00 in0.0 mm 0.00 in0.0 mm
03:00 AM 46.5°F8.1°C 41.0°F5.0°C 81% 9.2 mph W14.8 kmh W 12.7 mph20.4 kmh 29.63 in1003.4 mb - 0.00 in0.0 mm 0.00 in0.0 mm
02:45 AM 46.7°F8.2°C 40.5°F4.7°C 79% 13.8 mph W22.2 kmh W 20.7 mph33.3 kmh 29.63 in1003.4 mb - 0.00 in0.0 mm 0.00 in0.0 mm
02:30 AM 46.4°F8.0°C 39.9°F4.4°C 78% 16.1 mph W25.9 kmh W 19.6 mph31.5 kmh 29.62 in1003.0 mb - 0.00 in0.0 mm 0.00 in0.0 mm
02:15 AM 46.4°F8.0°C 39.2°F4.0°C 76% 10.4 mph WSW16.7 kmh WSW 19.6 mph31.5 kmh 29.62 in1003.0 mb - 0.00 in0.0 mm 0.00 in0.0 mm
02:00 AM 46.5°F8.1°C 39.0°F3.9°C 75% 11.5 mph W18.5 kmh W 17.3 mph27.8 kmh 29.62 in1003.0 mb - 0.00 in0.0 mm 0.00 in0.0 mm
01:45 AM 46.4°F8.0°C 38.9°F3.8°C 75% 10.4 mph W16.7 kmh W 11.5 mph18.5 kmh 29.63 in1003.4 mb - 0.00 in0.0 mm 0.00 in0.0 mm
01:30 AM 45.9°F7.7°C 38.8°F3.8°C 76% 12.7 mph W20.4 kmh W 23.0 mph37.0 kmh 29.62 in1003.0 mb - 0.00 in0.0 mm 0.00 in0.0 mm
01:15 AM 46.1°F7.8°C 39.0°F3.9°C 76% 11.5 mph W18.5 kmh W 18.4 mph29.6 kmh 29.62 in1003.0 mb - 0.00 in0.0 mm 0.00 in0.0 mm
01:00 AM 46.1°F7.8°C 39.3°F4.1°C 77% 13.8 mph W22.2 kmh W 13.8 mph22.2 kmh 29.62 in1003.0 mb - 0.00 in0.0 mm 0.00 in0.0 mm
12:45 AM 46.1°F7.8°C 39.0°F3.9°C 76% 12.7 mph W20.4 kmh W 18.4 mph29.6 kmh 29.62 in1003.0 mb - 0.00 in0.0 mm 0.00 in0.0 mm
12:30 AM 46.0°F7.8°C 38.9°F3.8°C 76% 15.0 mph W24.1 kmh W 25.3 mph40.7 kmh 29.62 in1003.0 mb - 0.00 in0.0 mm 0.00 in0.0 mm
12:15 AM 46.1°F7.8°C 39.2°F4.0°C 77% 16.1 mph W25.9 kmh W 25.3 mph40.7 kmh 29.62 in1003.0 mb - 0.00 in0.0 mm 0.00 in0.0 mm
12:00 AM 45.7°F7.6°C 39.3°F4.1°C 78% 16.1 mph W25.9 kmh W 19.6 mph31.5 kmh 29.62 in1003.0 mb - 0.00 in0.0 mm 0.00 in0.0 mm